Time;durP1;ratioP1;P1;durP2;ratioP2;P2;SDS_P1;SDS_P2;PMS_P1;PMS_P2;Temp;Humidity;BMP_temperature;BMP_pressure;BME280_temperature;BME280_humidity;BME280_pressure;Samples;Min_cycle;Max_cycle;Signal;HPM_P1;HPM_P2
2023/05/12 00:01:37;;;;;;;16.00;3.22;;;13.40;99.90;;;12.37;60.31;101587.94;4956435;28;20484;-72
2023/05/12 00:04:04;;;;;;;24.35;3.63;;;13.40;99.90;;;12.38;59.39;101584.41;4936071;28;20047;-73
2023/05/12 00:06:30;;;;;;;12.88;3.33;;;13.40;99.90;;;12.37;59.48;101589.75;4944607;28;20624;-73
2023/05/12 00:08:56;;;;;;;11.88;3.90;;;13.40;99.90;;;12.34;60.04;101582.81;4954503;28;20043;-74
2023/05/12 00:11:21;;;;;;;;;;;13.30;99.90;;;12.21;60.06;101573.66;4959792;28;20039;-72
2023/05/12 00:13:47;;;;;;;11.13;3.08;;;13.20;99.90;;;12.15;60.63;101574.75;4969903;28;19915;-72
2023/05/12 00:16:14;;;;;;;6.10;3.20;;;13.20;99.90;;;12.13;60.71;101576.59;4955384;28;20035;-72
2023/05/12 00:18:40;;;;;;;13.13;3.83;;;13.10;99.90;;;12.08;60.71;101574.13;4952056;28;20050;-72
2023/05/12 00:21:07;;;;;;;13.70;4.00;;;13.10;99.90;;;12.02;60.86;101579.66;4944268;28;20027;-72
2023/05/12 00:23:33;;;;;;;15.27;3.47;;;13.00;99.90;;;11.94;60.81;101575.59;4937951;28;20035;-72
2023/05/12 00:25:59;;;;;;;8.90;3.58;;;12.90;99.90;;;11.85;61.43;101579.41;4970822;28;20509;-72
2023/05/12 00:28:25;;;;;;;5.43;3.45;;;12.80;99.90;;;11.77;61.84;101578.84;4987632;28;20531;-73
2023/05/12 00:30:50;;;;;;;9.95;3.25;;;12.70;99.90;;;11.62;62.29;101572.34;4991166;28;20038;-73
2023/05/12 00:33:16;;;;;;;7.03;2.97;;;12.60;99.90;;;11.50;62.40;101571.91;4985749;28;20495;-72
2023/05/12 00:35:44;;;;;;;9.60;3.17;;;12.50;99.90;;;11.43;62.46;101572.22;4987821;28;20026;-72
2023/05/12 00:38:11;;;;;;;7.35;2.97;;;12.50;99.90;;;11.31;63.04;101577.91;4987307;28;20123;-72
2023/05/12 00:40:37;;;;;;;11.07;3.58;;;12.40;99.90;;;11.22;62.58;101572.06;4990420;28;20037;-72
2023/05/12 00:43:03;;;;;;;9.13;3.10;;;12.30;99.90;;;11.14;62.74;101567.97;4987671;28;20052;-72
2023/05/12 00:45:30;;;;;;;12.23;3.05;;;12.20;99.90;;;11.01;63.73;101564.91;4964705;28;20072;-73
2023/05/12 00:47:56;;;;;;;15.75;3.17;;;12.10;99.90;;;10.96;63.30;101566.84;4958479;28;20126;-74
2023/05/12 00:50:23;;;;;;;7.13;3.10;;;12.00;99.90;;;10.85;63.09;101573.34;4949885;28;20677;-73
2023/05/12 00:52:49;;;;;;;18.63;3.50;;;12.00;99.90;;;10.80;63.64;101564.75;4966482;28;20058;-72
2023/05/12 00:55:15;;;;;;;10.82;3.20;;;11.90;99.90;;;10.78;63.32;101563.94;4950853;28;20038;-73
2023/05/12 00:57:42;;;;;;;7.45;2.92;;;11.80;99.90;;;10.71;63.38;101565.03;4950483;28;20027;-72
2023/05/12 01:00:09;;;;;;;8.93;3.13;;;11.80;99.90;;;10.66;63.05;101569.59;4954486;28;20031;-72
2023/05/12 01:02:35;;;;;;;5.07;3.15;;;11.70;99.90;;;10.57;63.13;101570.78;4953360;28;20496;-72
2023/05/12 01:05:02;;;;;;;8.05;2.95;;;11.60;99.90;;;10.51;63.60;101570.13;4968247;28;20046;-72
2023/05/12 01:07:32;;;;;;;5.72;2.63;;;11.60;99.90;;;10.44;63.44;101569.47;4942521;28;20043;-72
2023/05/12 01:09:58;;;;;;;8.18;2.80;;;11.50;99.90;;;10.40;63.91;101571.31;4956764;28;20047;-72
2023/05/12 01:12:26;;;;;;;9.20;3.20;;;11.50;99.90;;;10.35;63.66;101567.13;4953698;28;20483;-72
2023/05/12 01:14:54;;;;;;;10.68;2.78;;;11.40;99.90;;;10.31;63.86;101576.03;4951555;28;20035;-73
2023/05/12 01:17:27;;;;;;;13.88;3.38;;;11.40;99.90;;;10.26;63.88;101570.88;4955533;28;20570;-71
2023/05/12 01:20:00;;;;;;;10.00;3.17;;;11.30;99.90;;;10.21;63.93;101562.25;4958666;28;20149;-73
2023/05/12 01:22:32;;;;;;;11.15;3.30;;;11.30;99.90;;;10.17;63.99;101566.78;4989068;28;20042;-72
2023/05/12 01:25:06;;;;;;;12.40;3.20;;;11.20;99.90;;;10.10;63.86;101561.75;4980934;28;20115;-74
2023/05/12 01:27:33;;;;;;;12.07;3.30;;;11.10;99.90;;;10.00;64.45;101569.94;4967689;28;20478;-73
2023/05/12 01:30:02;;;;;;;8.38;3.65;;;11.10;99.90;;;9.95;64.27;101560.44;4990271;28;20908;-73
2023/05/12 01:32:29;;;;;;;8.38;3.15;;;11.00;99.90;;;9.92;64.05;101564.03;4982456;28;20046;-74
2023/05/12 01:34:55;;;;;;;6.50;3.00;;;11.00;99.90;;;9.89;64.15;101558.84;4970314;28;20056;-73
2023/05/12 01:37:22;;;;;;;14.65;3.25;;;11.00;99.90;;;9.87;63.99;101565.97;4981326;28;20120;-73
2023/05/12 01:39:48;;;;;;;11.07;3.40;;;11.00;99.90;;;9.86;64.72;101577.38;4951003;28;20038;-72
2023/05/12 01:42:14;;;;;;;12.30;2.72;;;11.00;99.90;;;9.85;64.90;101562.50;4954401;28;20722;-72
2023/05/12 01:44:40;;;;;;;7.32;3.00;;;11.00;99.90;;;9.82;64.36;101563.44;4954461;28;20157;-72
2023/05/12 01:47:08;;;;;;;7.82;3.17;;;11.00;99.90;;;9.83;64.51;101554.66;4952348;28;20031;-75
2023/05/12 01:49:34;;;;;;;6.13;2.92;;;10.90;99.90;;;9.81;64.57;101558.25;4975193;28;20133;-72
2023/05/12 01:52:00;;;;;;;11.93;3.05;;;10.90;99.90;;;9.78;64.62;101560.94;4962933;28;20039;-73
2023/05/12 01:54:26;;;;;;;15.50;3.42;;;10.90;99.90;;;9.76;64.74;101558.38;4953370;28;20037;-73
2023/05/12 01:56:52;;;;;;;9.90;3.20;;;10.90;99.90;;;9.75;64.36;101558.44;4953939;28;20035;-74
2023/05/12 01:59:18;;;;;;;16.65;3.28;;;10.80;99.90;;;9.68;64.95;101563.00;4968882;28;20052;-72
2023/05/12 02:01:43;;;;;;;6.50;3.03;;;10.80;99.90;;;9.65;65.03;101568.34;4952162;28;20046;-73
2023/05/12 02:04:09;;;;;;;8.38;3.08;;;10.70;99.90;;;9.62;64.85;101569.28;4953644;28;20045;-74
2023/05/12 02:06:36;;;;;;;9.52;3.70;;;10.70;99.90;;;9.58;65.33;101564.19;4966941;28;20054;-72
2023/05/12 02:09:02;;;;;;;9.52;3.00;;;10.70;99.90;;;9.53;65.37;101569.56;4962031;28;20093;-73
2023/05/12 02:11:28;;;;;;;7.30;3.10;;;10.70;99.90;;;9.50;65.10;101569.66;4951531;28;20114;-73
2023/05/12 02:13:54;;;;;;;10.27;3.03;;;10.60;99.90;;;9.41;65.62;101565.50;4950627;28;20562;-72
2023/05/12 02:16:20;;;;;;;6.55;3.40;;;10.50;99.90;;;9.35;65.30;101554.31;4951326;28;20026;-73
2023/05/12 02:18:45;;;;;;;10.90;3.40;;;10.50;99.90;;;9.32;65.37;101560.53;4950258;28;20047;-73
2023/05/12 02:21:11;;;;;;;7.45;3.45;;;10.50;99.90;;;9.27;65.51;101558.94;4951890;28;20126;-74
2023/05/12 02:23:37;;;;;;;8.35;4.10;;;10.40;99.90;;;9.22;65.70;101561.66;4967815;28;20090;-72
2023/05/12 02:26:03;;;;;;;10.43;3.28;;;10.40;99.90;;;9.20;66.26;101564.38;4954157;28;20069;-72
2023/05/12 02:28:29;;;;;;;15.75;3.65;;;10.30;99.90;;;9.16;65.87;101561.88;4926080;28;20043;-73
2023/05/12 02:30:55;;;;;;;10.02;3.30;;;10.30;99.90;;;9.14;66.09;101564.53;4949036;28;20039;-73
2023/05/12 02:33:21;;;;;;;6.07;3.20;;;10.30;99.90;;;9.12;66.12;101566.34;4940694;28;20039;-72
2023/05/12 02:35:47;;;;;;;11.70;4.03;;;10.30;99.90;;;9.10;66.23;101568.13;4950307;28;20027;-72
2023/05/12 02:38:13;;;;;;;11.75;3.58;;;10.20;99.90;;;9.04;66.11;101568.31;4985473;28;20086;-73
2023/05/12 02:40:39;;;;;;;16.05;3.35;;;10.20;99.90;;;9.00;65.83;101570.13;4945722;28;20436;-73
2023/05/12 02:43:06;;;;;;;11.23;3.03;;;10.20;99.90;;;9.00;65.59;101566.66;4953062;28;20046;-73
2023/05/12 02:45:32;;;;;;;8.43;3.38;;;10.20;99.90;;;9.00;65.78;101569.28;4952621;28;20114;-74
2023/05/12 02:47:57;;;;;;;6.68;3.20;;;10.10;99.90;;;8.94;66.16;101567.69;4942231;28;20059;-73
2023/05/12 02:50:23;;;;;;;8.05;3.33;;;10.10;99.90;;;8.88;65.78;101572.25;4950190;28;20466;-73
2023/05/12 02:52:49;;;;;;;13.88;3.90;;;10.00;99.90;;;8.81;65.69;101571.50;4949313;28;20026;-73
2023/05/12 02:55:15;;;;;;;11.00;3.60;;;9.90;99.90;;;8.72;66.12;101567.38;4949664;28;20436;-73
2023/05/12 02:57:43;;;;;;;10.32;3.22;;;9.90;99.90;;;8.72;66.03;101569.13;4945960;28;20033;-75
2023/05/12 03:00:09;;;;;;;8.65;2.80;;;9.90;99.90;;;8.72;66.22;101577.00;4944745;28;20062;-72
2023/05/12 03:02:37;;;;;;;12.90;3.58;;;9.90;99.90;;;8.70;66.35;101584.91;4948080;28;20062;-74
2023/05/12 03:05:04;;;;;;;13.77;3.40;;;9.90;99.90;;;8.71;66.29;101578.78;4954467;28;20026;-74
2023/05/12 03:07:30;;;;;;;8.52;3.60;;;9.80;99.90;;;8.71;66.65;101581.41;4968414;28;22222;-73
2023/05/12 03:09:57;;;;;;;11.50;3.40;;;9.80;99.90;;;8.66;66.70;101578.03;4984525;28;20458;-72
2023/05/12 03:12:23;;;;;;;10.38;3.72;;;9.70;99.90;;;8.56;67.02;101569.53;4983885;28;21693;-72
2023/05/12 03:14:50;;;;;;;7.60;3.80;;;9.70;99.90;;;8.50;67.59;101577.53;5001042;28;20410;-72
2023/05/12 03:17:16;;;;;;;16.05;3.90;;;9.60;99.90;;;8.43;67.51;101572.50;4980428;28;20503;-72
2023/05/12 03:19:42;;;;;;;16.13;3.90;;;9.50;99.90;;;8.38;67.68;101580.41;4985725;28;20045;-73
2023/05/12 03:22:08;;;;;;;11.68;3.38;;;9.50;99.90;;;8.29;68.77;101573.63;4983190;28;20755;-73
2023/05/12 03:24:35;;;;;;;6.32;3.38;;;9.40;99.90;;;8.28;69.16;101581.56;4989177;28;20030;-72
2023/05/12 03:27:01;;;;;;;11.07;4.10;;;9.40;99.90;;;8.26;68.64;101589.47;4988385;28;20026;-74
2023/05/12 03:29:27;;;;;;;11.27;4.22;;;9.40;99.90;;;8.26;69.05;101589.47;4983510;28;20041;-75
2023/05/12 03:31:52;;;;;;;6.80;3.67;;;9.40;99.90;;;8.24;70.05;101593.88;4982889;28;20073;-73
2023/05/12 03:34:18;;;;;;;8.90;3.65;;;9.50;99.90;;;8.32;69.50;101594.56;4969101;28;20038;-74
2023/05/12 03:36:44;;;;;;;11.27;4.20;;;9.50;99.90;;;8.36;69.90;101604.09;4969235;28;20050;-72
2023/05/12 03:39:11;;;;;;;9.75;4.45;;;9.50;99.90;;;8.34;70.16;101608.53;4950594;28;20122;-73
2023/05/12 03:41:37;;;;;;;14.05;4.85;;;9.40;99.90;;;8.27;70.88;101601.69;4965966;28;20031;-72
2023/05/12 03:44:07;;;;;;;10.73;4.40;;;9.40;99.90;;;8.26;71.18;101604.34;4950524;28;20392;-74
2023/05/12 03:46:33;;;;;;;13.15;4.20;;;9.40;99.90;;;8.26;71.41;101606.97;4949907;28;20035;-72
2023/05/12 03:49:00;;;;;;;12.65;4.82;;;9.40;99.90;;;8.27;71.75;101617.44;4950433;28;20031;-74
2023/05/12 03:51:29;;;;;;;12.75;4.45;;;9.40;99.90;;;8.32;72.91;101618.19;4948684;28;20471;-73
2023/05/12 03:53:55;;;;;;;13.35;4.60;;;9.40;99.90;;;8.44;72.16;101626.69;4965038;28;20489;-74
2023/05/12 03:56:21;;;;;;;9.15;4.35;;;9.50;99.90;;;8.55;72.49;101619.44;4949964;28;20039;-73
2023/05/12 03:58:48;;;;;;;7.90;4.43;;;9.70;99.90;;;8.71;72.81;101633.06;4950162;28;20035;-72
2023/05/12 04:01:13;;;;;;;9.77;4.20;;;9.80;99.90;;;8.87;72.46;101629.16;4949262;28;20574;-72
2023/05/12 04:03:42;;;;;;;6.30;4.05;;;10.50;99.90;;;9.95;71.28;101644.63;4934240;28;20066;-73
2023/05/12 04:06:08;;;;;;;13.38;4.32;;;12.20;99.90;;;12.04;67.84;101664.06;4944578;28;20033;-75
2023/05/12 04:08:34;;;;;;;10.32;4.88;;;13.80;99.90;;;14.01;62.30;101685.00;5003345;28;20057;-72
2023/05/12 04:11:01;;;;;;;6.25;3.90;;;15.40;99.90;;;15.65;56.92;101684.91;4995748;28;20655;-73
2023/05/12 04:13:28;;;;;;;15.80;4.10;;;16.80;99.90;;;17.30;53.19;101705.91;4985857;28;20057;-72
2023/05/12 04:15:55;;;;;;;13.90;4.30;;;18.00;97.90;;;18.65;49.79;101728.66;4991096;28;20045;-73
2023/05/12 04:18:22;;;;;;;10.65;3.97;;;19.10;95.30;;;19.57;47.17;101741.25;4975238;28;20414;-72
2023/05/12 04:20:47;;;;;;;9.18;3.58;;;19.90;93.30;;;20.43;45.14;101748.63;5007855;28;20034;-72
2023/05/12 04:23:14;;;;;;;13.80;4.00;;;20.60;92.50;;;21.09;43.71;101751.81;4989406;28;20031;-72
2023/05/12 04:25:41;;;;;;;11.57;3.63;;;21.20;90.80;;;21.69;42.30;101771.41;4965608;28;20039;-73
2023/05/12 04:28:08;;;;;;;7.07;3.63;;;21.70;90.50;;;22.60;40.87;101780.38;4985883;28;20037;-72
2023/05/12 04:30:37;;;;;;;9.70;3.45;;;22.50;90.90;;;23.76;39.45;101801.28;4987212;28;20414;-72
2023/05/12 04:33:03;;;;;;;14.10;3.35;;;23.30;90.00;;;24.89;38.03;101808.44;4982458;28;20118;-73
2023/05/12 04:35:29;;;;;;;11.93;3.30;;;23.90;84.50;;;25.38;36.08;101812.91;4962928;28;20051;-72
2023/05/12 04:37:54;;;;;;;;;;;24.00;86.40;;;25.16;35.19;101810.44;4990245;28;20030;-74
2023/05/12 04:40:20;;;;;;;11.98;3.50;;;24.30;81.10;;;25.52;35.27;101827.78;4979121;28;19918;-73
2023/05/12 04:42:46;;;;;;;;;;;24.30;83.60;;;26.46;33.76;101850.47;4983839;28;20038;-72
2023/05/12 04:45:12;;;;;;;7.00;3.40;;;25.00;79.80;;;26.93;33.41;101850.41;4965684;28;20296;-72
2023/05/12 04:47:38;;;;;;;12.38;3.40;;;25.30;79.30;;;27.35;32.93;101863.41;4955488;28;20039;-73
2023/05/12 04:50:04;;;;;;;;;;;25.30;81.20;;;28.43;31.69;101886.56;4953488;28;20403;-72
2023/05/12 04:52:30;;;;;;;8.63;3.57;;;26.40;79.50;;;29.21;31.13;101888.28;4952723;28;19925;-72
2023/05/12 04:54:56;;;;;;;6.55;3.13;;;26.90;78.50;;;29.75;30.20;101897.88;4961926;28;20042;-72
2023/05/12 04:57:22;;;;;;;9.93;3.22;;;27.40;75.20;;;30.39;29.27;101898.84;4975863;28;20038;-72
2023/05/12 04:59:48;;;;;;;7.30;3.30;;;28.10;77.60;;;31.32;28.59;101910.88;4957134;28;20035;-73
2023/05/12 05:02:14;;;;;;;;;;;28.10;77.50;;;31.97;27.90;101925.88;4962219;28;20125;-73
2023/05/12 05:04:40;;;;;;;9.20;3.15;;;29.00;70.70;;;32.19;26.70;101931.50;4969568;28;19921;-73
2023/05/12 05:07:05;;;;;;;;;;;28.90;73.60;;;32.76;26.35;101940.94;4954836;28;20039;-73
2023/05/12 05:09:31;;;;;;;13.45;3.38;;;29.40;71.00;;;32.82;26.01;101943.75;4987270;28;20313;-72
2023/05/12 05:11:57;;;;;;;;;;;29.40;72.20;;;32.73;26.57;101958.53;4974310;28;20045;-72
2023/05/12 05:14:23;;;;;;;8.80;3.03;;;29.30;68.00;;;32.09;26.10;101959.00;4981960;28;19918;-72
2023/05/12 05:16:48;;;;;;;;;;;29.20;70.50;;;32.36;26.50;101971.19;4964219;28;20129;-72
2023/05/12 05:19:15;;;;;;;10.25;3.55;;;28.80;68.80;;;31.88;26.34;101971.41;4986307;28;19921;-73
2023/05/12 05:21:41;;;;;;;6.85;3.33;;;28.60;68.70;;;31.85;26.24;101979.09;4986772;28;20033;-73
2023/05/12 05:24:07;;;;;;;11.07;3.78;;;28.90;69.50;;;32.53;25.88;101998.28;4978670;28;20030;-72
2023/05/12 05:26:34;;;;;;;7.95;3.90;;;29.00;70.20;;;32.61;25.41;102009.94;4990329;28;20050;-72
2023/05/12 05:29:06;;;;;;;9.75;3.38;;;29.60;70.60;;;34.15;24.41;102018.19;4978692;28;20033;-73
2023/05/12 05:31:32;;;;;;;6.50;3.53;;;29.90;67.70;;;34.04;24.48;102030.47;4962149;28;20065;-74
2023/05/12 05:33:58;;;;;;;8.20;3.90;;;30.40;66.00;;;34.24;24.10;102019.75;4952915;28;20031;-74
2023/05/12 05:36:26;;;;;;;10.77;3.83;;;30.50;64.20;;;34.04;23.67;102032.34;4959359;28;20053;-73
2023/05/12 05:38:52;;;;;;;6.72;3.35;;;30.70;65.00;;;34.14;23.53;102032.91;4946933;28;20049;-74
2023/05/12 05:41:18;;;;;;;8.05;3.83;;;30.80;64.60;;;34.38;23.60;102036.25;4968119;28;20035;-74
2023/05/12 05:43:44;;;;;;;6.93;3.70;;;31.00;64.10;;;34.89;23.23;102046.97;4950420;28;20035;-72
2023/05/12 05:46:10;;;;;;;;;;;31.00;66.40;;;35.44;22.39;102061.56;4953074;28;20496;-73
2023/05/12 05:48:35;;;;;;;9.25;4.10;;;31.50;65.50;;;35.66;22.83;102059.59;4952203;28;19922;-72
2023/05/12 05:51:02;;;;;;;9.07;3.90;;;31.40;62.00;;;34.74;22.56;102058.00;4933948;28;20123;-73
2023/05/12 05:53:27;;;;;;;9.13;3.60;;;30.90;62.00;;;33.40;24.15;102046.75;4951051;28;20568;-73
2023/05/12 05:55:53;;;;;;;9.30;4.00;;;30.90;63.10;;;33.83;23.86;102038.66;4953451;28;20039;-73
2023/05/12 05:58:19;;;;;;;10.60;3.90;;;30.60;61.70;;;33.42;23.65;102034.59;4953708;28;20034;-73
2023/05/12 06:00:45;;;;;;;12.15;3.90;;;30.70;60.80;;;33.10;23.27;102027.69;4949458;28;20043;-73
2023/05/12 06:03:11;;;;;;;11.52;4.32;;;30.50;61.60;;;32.91;23.93;102020.88;4945587;28;20039;-73
2023/05/12 06:05:37;;;;;;;8.05;3.78;;;30.60;62.20;;;33.34;23.70;102026.53;4952848;28;20097;-73
2023/05/12 06:08:04;;;;;;;12.52;4.25;;;30.90;62.50;;;33.57;23.53;102037.31;4966041;28;20057;-74
2023/05/12 06:10:30;;;;;;;14.90;3.95;;;30.60;62.40;;;32.97;24.09;102022.03;4996036;28;20601;-73
2023/05/12 06:12:56;;;;;;;12.05;4.15;;;30.60;62.50;;;32.97;23.83;102022.03;4983857;28;20089;-72
2023/05/12 06:15:22;;;;;;;7.15;3.80;;;30.80;61.40;;;32.76;23.73;102020.03;4985142;28;20054;-74
2023/05/12 06:17:48;;;;;;;9.88;3.50;;;31.00;61.40;;;33.19;23.67;102029.25;4978138;28;20042;-73
2023/05/12 06:20:13;;;;;;;12.38;3.97;;;31.20;61.70;;;33.22;24.01;102026.19;4988341;28;20033;-73
2023/05/12 06:22:43;;;;;;;13.55;3.70;;;31.40;62.10;;;33.09;24.02;102036.91;4990013;28;20368;-73
2023/05/12 06:25:09;;;;;;;10.60;4.53;;;31.50;60.50;;;32.89;24.04;102029.28;4973306;28;20043;-73
2023/05/12 06:27:35;;;;;;;9.57;3.35;;;31.10;61.50;;;32.15;24.96;102015.47;4966854;28;20060;-73
2023/05/12 06:30:01;;;;;;;16.30;4.10;;;31.10;62.10;;;32.38;24.73;102020.91;4985470;28;20026;-74
2023/05/12 06:32:27;;;;;;;7.30;3.80;;;31.00;62.20;;;32.11;25.28;102019.59;4981543;28;20282;-72
2023/05/12 06:34:53;;;;;;;5.07;3.60;;;30.70;61.80;;;31.60;25.49;102014.66;4975147;28;20116;-74
2023/05/12 06:37:18;;;;;;;11.57;3.97;;;31.10;63.80;;;32.77;24.94;102029.94;4987713;28;20042;-72
2023/05/12 06:39:46;;;;;;;14.77;3.85;;;31.60;62.70;;;33.41;24.13;102040.25;4978654;28;20051;-75
2023/05/12 06:42:12;;;;;;;12.98;3.67;;;31.80;60.70;;;32.73;24.47;102028.59;4986928;28;20038;-79
2023/05/12 06:44:38;;;;;;;9.00;3.58;;;32.00;60.80;;;32.91;24.60;102031.78;4969829;28;20049;-78
2023/05/12 06:47:04;;;;;;;19.90;4.55;;;31.50;61.60;;;31.85;25.92;102014.47;4954068;28;20125;-75
2023/05/12 06:49:31;;;;;;;10.57;3.33;;;31.80;61.20;;;32.60;25.48;102021.91;4974750;28;20491;-74
2023/05/12 06:51:57;;;;;;;9.45;3.65;;;32.20;60.90;;;33.09;24.85;102034.19;5001069;28;20038;-73
2023/05/12 06:54:22;;;;;;;13.95;3.60;;;32.50;61.10;;;33.60;24.33;102039.66;4985009;28;20041;-73
2023/05/12 06:56:48;;;;;;;12.00;3.83;;;32.90;61.50;;;33.52;23.74;102045.19;5001913;28;20027;-74
2023/05/12 06:59:14;;;;;;;10.98;3.80;;;32.90;59.80;;;33.24;24.22;102028.69;4982447;28;20121;-73
2023/05/12 07:01:41;;;;;;;12.52;3.83;;;32.80;59.50;;;32.79;24.58;102031.44;4986438;28;20096;-73
2023/05/12 07:04:07;;;;;;;6.43;3.67;;;32.30;59.00;;;31.45;25.38;102011.00;4974088;28;20039;-73
2023/05/12 07:06:33;;;;;;;7.88;3.53;;;32.10;61.40;;;32.43;25.64;102015.72;4971972;28;20044;-73
2023/05/12 07:08:59;;;;;;;7.20;3.40;;;32.40;62.20;;;33.09;25.28;102023.28;4970958;28;20133;-74
2023/05/12 07:11:25;;;;;;;12.20;3.60;;;32.80;61.80;;;33.72;25.31;102026.38;4972887;28;20403;-75
2023/05/12 07:13:51;;;;;;;9.27;3.65;;;33.20;61.10;;;33.91;24.41;102027.63;5000264;28;20034;-73
2023/05/12 07:16:18;;;;;;;8.85;3.60;;;33.20;59.00;;;33.03;25.05;102016.66;4970311;28;20037;-74
2023/05/12 07:18:45;;;;;;;9.88;3.40;;;32.70;59.40;;;31.63;26.37;102000.69;4985986;28;20030;-73
2023/05/12 07:21:11;;;;;;;9.45;3.97;;;32.70;60.40;;;32.53;25.48;102007.34;4984674;28;20045;-74
2023/05/12 07:23:38;;;;;;;6.65;3.85;;;32.70;60.90;;;32.65;25.42;102004.97;4986763;28;20095;-74
2023/05/12 07:26:05;;;;;;;8.90;3.53;;;32.60;60.80;;;32.57;25.82;101991.44;4989577;28;20257;-73
2023/05/12 07:28:35;;;;;;;17.00;3.85;;;32.70;60.60;;;32.89;25.50;102007.44;4983468;28;20092;-74
2023/05/12 07:31:02;;;;;;;9.90;3.60;;;32.70;61.50;;;32.85;25.85;101999.81;4988114;28;20038;-74
2023/05/12 07:33:29;;;;;;;8.75;3.53;;;32.50;59.90;;;32.06;25.90;101992.06;4986248;28;20117;-72
2023/05/12 07:35:55;;;;;;;10.10;3.60;;;32.30;61.90;;;31.83;26.77;101979.25;4966477;28;20089;-73
2023/05/12 07:38:21;;;;;;;8.00;3.75;;;32.10;61.70;;;31.74;26.50;101979.50;4949546;28;20098;-74
2023/05/12 07:40:48;;;;;;;12.85;3.70;;;32.20;60.90;;;32.07;26.05;101989.16;4955829;28;20050;-73
2023/05/12 07:43:13;;;;;;;11.30;3.40;;;31.30;60.10;;;29.81;27.85;101952.34;4953380;28;20034;-73
2023/05/12 07:45:39;;;;;;;9.80;3.83;;;30.70;60.60;;;29.70;28.23;101949.97;4959590;28;20511;-75
2023/05/12 07:48:05;;;;;;;9.52;3.90;;;29.70;62.70;;;28.30;29.23;101937.63;4993299;28;20037;-74
2023/05/12 07:50:31;;;;;;;8.95;3.58;;;29.10;63.80;;;28.03;30.30;101927.75;4975570;28;20049;-73
2023/05/12 07:52:57;;;;;;;9.38;3.20;;;29.20;65.40;;;29.04;29.11;101936.16;4963932;28;20507;-74
2023/05/12 07:55:24;;;;;;;11.65;3.63;;;29.50;65.60;;;29.42;29.47;101933.09;4946276;28;20057;-74
2023/05/12 07:57:50;;;;;;;8.23;3.25;;;29.40;63.40;;;28.83;29.25;101930.31;4951785;28;20503;-75
2023/05/12 08:00:17;;;;;;;10.57;3.28;;;29.10;63.20;;;28.32;29.41;101913.09;4987896;28;20046;-73
2023/05/12 08:02:43;;;;;;;12.77;4.00;;;28.80;63.90;;;27.90;29.88;101902.97;4957413;28;20163;-73
2023/05/12 08:05:10;;;;;;;12.95;4.10;;;28.70;63.30;;;28.11;29.60;101911.59;4984514;28;20034;-74
2023/05/12 08:07:37;;;;;;;8.60;3.55;;;28.60;64.30;;;28.01;29.71;101903.56;4988783;28;20592;-74
2023/05/12 08:10:06;;;;;;;10.48;3.65;;;28.20;66.50;;;27.66;31.13;101890.06;4985631;28;20046;-75
2023/05/12 08:12:32;;;;;;;13.50;3.58;;;28.20;65.40;;;27.96;30.05;101902.34;4972286;28;20090;-74
2023/05/12 08:14:59;;;;;;;8.68;3.65;;;27.70;67.50;;;26.98;31.05;101883.25;4982509;28;20042;-74
2023/05/12 08:17:24;;;;;;;7.38;3.40;;;27.50;67.20;;;26.79;31.02;101878.78;4985116;28;20049;-74
2023/05/12 08:19:50;;;;;;;9.48;3.90;;;27.00;69.10;;;26.35;31.75;101876.69;4983467;28;20090;-74
2023/05/12 08:22:16;;;;;;;11.05;3.55;;;26.80;69.40;;;26.55;32.42;101873.91;4989600;28;20037;-73
2023/05/12 08:24:42;;;;;;;10.65;3.65;;;26.60;69.00;;;26.22;33.12;101868.06;4963738;28;20036;-74
2023/05/12 08:27:08;;;;;;;5.82;3.40;;;26.20;67.70;;;25.07;32.98;101852.53;4955029;28;20035;-74
2023/05/12 08:29:34;;;;;;;9.25;3.85;;;25.60;68.40;;;24.62;33.74;101841.38;4953277;28;20051;-73
2023/05/12 08:31:59;;;;;;;10.02;3.80;;;25.30;69.60;;;24.59;34.29;101850.56;4950138;28;20399;-74
2023/05/12 08:34:26;;;;;;;8.73;3.28;;;25.00;69.10;;;24.59;34.14;101839.81;4951441;28;20054;-74
2023/05/12 08:36:52;;;;;;;11.32;3.85;;;24.60;70.50;;;23.71;34.52;101833.03;4952818;28;20043;-75
2023/05/12 08:39:19;;;;;;;9.35;3.08;;;24.20;71.60;;;23.44;35.18;101826.31;4955042;28;20114;-77
2023/05/12 08:42:32;;;;;;;6.10;3.38;;;24.00;73.30;;;23.43;36.04;101837.19;4952539;28;20032;-75
2023/05/12 08:44:59;;;;;;;9.23;3.38;;;23.80;73.70;;;23.09;37.69;101813.16;4984237;28;20538;-74
2023/05/12 08:47:26;;;;;;;9.60;3.08;;;23.50;72.50;;;22.23;36.54;101794.06;4991215;28;20457;-74
2023/05/12 08:50:00;;;;;;;10.68;3.30;;;23.30;74.50;;;22.13;38.16;101801.94;4972658;28;20050;-74
2023/05/12 08:52:32;;;;;;;9.25;3.55;;;23.20;75.90;;;22.44;37.70;101804.91;4960040;28;20050;-74
2023/05/12 08:54:59;;;;;;;8.25;3.40;;;22.80;75.50;;;21.73;38.50;101798.84;4989007;28;20415;-73
2023/05/12 08:57:26;;;;;;;16.17;3.53;;;22.70;75.90;;;21.73;38.46;101793.47;4987723;28;20038;-73
2023/05/12 08:59:58;;;;;;;10.73;3.45;;;22.80;77.70;;;22.39;38.60;101796.38;4989492;28;20125;-75
2023/05/12 09:02:24;;;;;;;8.60;3.35;;;23.00;77.00;;;22.57;38.34;101793.19;4980358;28;20517;-74
2023/05/12 09:04:53;;;;;;;7.50;3.20;;;23.10;76.40;;;22.56;38.50;101804.91;4983714;28;20424;-75
2023/05/12 09:07:23;;;;;;;6.70;3.55;;;23.20;76.30;;;22.65;37.84;101802.31;4984439;28;20034;-76
2023/05/12 09:09:56;;;;;;;9.65;3.10;;;22.90;76.80;;;22.03;38.98;101794.72;4989142;28;20042;-75
2023/05/12 09:12:26;;;;;;;16.63;3.40;;;23.10;78.90;;;22.42;38.98;101795.25;4976613;28;20038;-76
2023/05/12 09:15:09;;;;;;;10.18;3.70;;;23.10;78.90;;;22.64;39.52;101792.56;4988293;28;20042;-75
2023/05/12 09:17:36;;;;;;;12.80;3.50;;;23.20;76.50;;;22.52;38.49;101802.44;4977514;28;20029;-76
2023/05/12 09:20:06;;;;;;;11.80;3.47;;;23.10;78.10;;;22.30;39.82;101794.44;4967687;28;20042;-75
2023/05/12 09:22:35;;;;;;;11.52;3.70;;;23.00;77.20;;;22.15;39.44;101796.47;4955649;28;20600;-75
2023/05/12 09:25:18;;;;;;;5.13;2.88;;;23.10;76.70;;;22.07;38.62;101788.16;4954595;28;20451;-76
2023/05/12 09:27:53;;;;;;;10.20;3.45;;;23.10;79.50;;;22.59;39.94;101794.78;4976849;28;20126;-76
2023/05/12 09:30:30;;;;;;;9.52;3.25;;;23.10;77.30;;;22.32;39.03;101790.63;4994569;28;20122;-75
2023/05/12 09:33:12;;;;;;;11.60;4.00;;;23.20;78.80;;;22.75;39.82;101796.22;4980215;28;20121;-75
2023/05/12 09:35:44;;;;;;;7.07;3.10;;;23.40;78.20;;;22.81;39.20;101793.03;4988851;28;20108;-74
2023/05/12 09:38:13;;;;;;;6.55;3.30;;;23.40;78.20;;;22.70;39.33;101791.25;4958799;28;20045;-76
2023/05/12 09:40:39;;;;;;;11.68;3.78;;;23.40;78.40;;;22.75;39.21;101801.59;4949545;28;20035;-77
2023/05/12 09:43:06;;;;;;;16.80;3.45;;;23.50;78.60;;;22.80;40.15;101799.38;4951296;28;20082;-76
2023/05/12 09:45:34;;;;;;;7.82;3.63;;;23.40;78.10;;;22.66;39.51;101808.56;4941463;28;20043;-76
2023/05/12 09:48:11;;;;;;;5.57;2.80;;;23.20;79.10;;;22.28;39.72;101794.53;4953801;28;20035;-75
2023/05/12 09:50:48;;;;;;;;;;;23.20;78.90;;;22.34;40.53;101790.53;4925715;28;20041;-75
2023/05/12 09:53:16;;;;;;;7.50;3.13;;;23.20;79.10;;;22.37;40.64;101789.41;4931824;28;20429;-77
2023/05/12 09:55:43;;;;;;;7.72;3.38;;;23.10;78.70;;;22.17;40.46;101785.63;4942479;28;20046;-75
2023/05/12 09:58:13;;;;;;;6.88;3.53;;;23.10;78.70;;;22.22;40.30;101780.72;4958879;28;20064;-75
2023/05/12 10:00:40;;;;;;;14.57;3.70;;;23.20;80.70;;;22.29;40.29;101782.84;4950484;28;20049;-76
2023/05/12 10:03:20;;;;;;;6.90;3.63;;;22.90;80.50;;;21.94;40.77;101776.69;4966905;28;20042;-76
2023/05/12 10:05:55;;;;;;;17.80;3.50;;;22.80;78.50;;;22.00;40.42;101774.38;4971185;28;20030;-76
2023/05/12 10:08:33;;;;;;;6.78;2.95;;;22.70;81.90;;;21.94;41.69;101777.53;4979536;28;20174;-76
2023/05/12 10:11:03;;;;;;;12.43;3.60;;;22.70;82.40;;;21.91;41.93;101773.28;4981523;28;20042;-75
2023/05/12 10:13:31;;;;;;;7.50;3.15;;;22.70;79.40;;;21.98;40.78;101770.97;4974268;28;20049;-76
2023/05/12 10:15:57;;;;;;;9.70;3.25;;;22.70;79.90;;;21.97;41.30;101780.00;4973430;28;21520;-75